Time,TemperatureF,DewpointF,PressureIn,WindDirection,WindDirectionDegrees,WindSpeedMPH,WindSpeedGustMPH,Humidity,HourlyPrecipIn,Conditions,Clouds,dailyrainin,SolarRadiationWatts/m^2,SoftwareType,DateUTC
2013-06-17 00:03:00,77.1,74.0,30.01,ESE,103,2.0,8.0,89,0.00,,,0.00,0,weatherlink.com 1.10,2013-06-17 04:03:00,
2013-06-17 00:18:00,77.1,74.0,30.01,East,85,2.0,5.0,89,0.00,,,0.00,0,weatherlink.com 1.10,2013-06-17 04:18:00,
2013-06-17 00:33:00,77.1,74.0,30.01,East,98,3.0,5.0,90,0.00,,,0.00,0,weatherlink.com 1.10,2013-06-17 04:33:00,
2013-06-17 00:48:00,77.0,74.0,30.01,NE,54,0.0,5.0,89,0.00,,,0.00,0,weatherlink.com 1.10,2013-06-17 04:48:00,
2013-06-17 01:03:00,77.1,74.0,30.00,East,87,0.0,5.0,89,0.00,,,0.00,0,weatherlink.com 1.10,2013-06-17 05:03:00,
2013-06-17 01:18:00,77.1,74.0,29.99,East,98,2.0,9.0,89,0.00,,,0.00,0,weatherlink.com 1.10,2013-06-17 05:18:00,
2013-06-17 01:33:00,77.2,74.0,29.99,SSE,164,1.0,6.0,89,0.00,,,0.00,0,weatherlink.com 1.10,2013-06-17 05:33:00,
2013-06-17 01:48:00,77.1,74.0,29.99,East,84,1.0,7.0,89,0.00,,,0.00,0,weatherlink.com 1.10,2013-06-17 05:48:00,
2013-06-17 02:03:00,77.1,74.0,29.99,ESE,103,0.0,8.0,89,0.00,,,0.00,0,weatherlink.com 1.10,2013-06-17 06:03:00,
2013-06-17 02:18:00,77.1,74.0,29.99,East,101,3.0,7.0,89,0.00,,,0.00,0,weatherlink.com 1.10,2013-06-17 06:18:00,
2013-06-17 02:33:00,77.0,74.0,29.99,East,96,0.0,2.0,90,0.00,,,0.00,0,weatherlink.com 1.10,2013-06-17 06:33:00,
2013-06-17 02:48:00,76.7,74.0,29.99,East,96,0.0,1.0,91,0.00,,,0.00,0,weatherlink.com 1.10,2013-06-17 06:48:00,
2013-06-17 03:03:00,76.6,74.0,29.99,ESE,111,0.0,3.0,91,0.00,,,0.00,0,weatherlink.com 1.10,2013-06-17 07:03:00,
2013-06-17 03:18:00,76.4,74.0,29.99,ESE,111,0.0,3.0,92,0.00,,,0.00,0,weatherlink.com 1.10,2013-06-17 07:18:00,
2013-06-17 03:33:00,76.3,74.0,29.98,ESE,111,1.0,3.0,92,0.00,,,0.00,0,weatherlink.com 1.10,2013-06-17 07:33:00,
2013-06-17 03:48:00,76.4,74.0,29.98,ESE,113,0.0,2.0,91,0.00,,,0.00,0,weatherlink.com 1.10,2013-06-17 07:48:00,
2013-06-17 04:03:00,76.4,74.0,29.99,ESE,113,0.0,3.0,92,0.00,,,0.00,0,weatherlink.com 1.10,2013-06-17 08:03:00,
2013-06-17 04:18:00,76.3,74.0,29.99,ESE,113,0.0,2.0,92,0.00,,,0.00,0,weatherlink.com 1.10,2013-06-17 08:18:00,
2013-06-17 04:33:00,76.3,74.0,29.99,ESE,113,0.0,3.0,92,0.00,,,0.00,0,weatherlink.com 1.10,2013-06-17 08:33:00,
2013-06-17 04:48:00,76.3,74.0,29.99,ESE,113,0.0,2.0,92,0.00,,,0.00,0,weatherlink.com 1.10,2013-06-17 08:48:00,
2013-06-17 05:03:00,76.3,74.0,30.00,ESE,113,0.0,1.0,92,0.00,,,0.00,0,weatherlink.com 1.10,2013-06-17 09:03:00,
2013-06-17 05:18:00,76.4,74.0,30.00,ESE,113,0.0,2.0,92,0.00,,,0.00,0,weatherlink.com 1.10,2013-06-17 09:18:00,
2013-06-17 05:33:00,76.5,74.0,30.00,ENE,66,3.0,6.0,92,0.00,,,0.00,0,weatherlink.com 1.10,2013-06-17 09:33:00,
2013-06-17 05:48:00,76.3,74.0,30.00,East,84,0.0,2.0,92,0.00,,,0.00,0,weatherlink.com 1.10,2013-06-17 09:48:00,
2013-06-17 06:03:00,76.1,74.0,29.99,East,84,0.0,2.0,92,0.00,,,0.00,9,weatherlink.com 1.10,2013-06-17 10:03:00,
2013-06-17 06:18:00,76.3,74.0,30.00,ESE,115,0.0,6.0,91,0.00,,,0.00,33,weatherlink.com 1.10,2013-06-17 10:18:00,
2013-06-17 06:33:00,76.6,74.0,30.00,ESE,102,5.0,5.0,91,0.00,,,0.00,28,weatherlink.com 1.10,2013-06-17 10:33:00,
2013-06-17 06:48:00,76.7,74.0,30.01,SSE,165,4.0,11.0,90,0.00,,,0.00,65,weatherlink.com 1.10,2013-06-17 10:48:00,
2013-06-17 07:03:00,76.6,74.0,30.01,East,84,0.0,7.0,91,0.00,,,0.00,79,weatherlink.com 1.10,2013-06-17 11:03:00,
2013-06-17 07:18:00,77.0,74.0,30.02,East,99,0.0,8.0,90,0.00,,,0.00,105,weatherlink.com 1.10,2013-06-17 11:18:00,
2013-06-17 07:33:00,77.3,74.0,30.01,South,172,2.0,9.0,90,0.00,,,0.00,135,weatherlink.com 1.10,2013-06-17 11:33:00,
2013-06-17 07:48:00,77.6,74.0,30.01,ESE,110,0.0,7.0,89,0.00,,,0.00,148,weatherlink.com 1.10,2013-06-17 11:48:00,
2013-06-17 08:04:00,77.8,74.0,30.02,East,98,5.0,8.0,89,0.00,,,0.00,158,weatherlink.com 1.10,2013-06-17 12:04:00,
2013-06-17 08:19:00,77.9,75.0,30.02,East,98,5.0,11.0,89,0.00,,,0.00,188,weatherlink.com 1.10,2013-06-17 12:19:00,
2013-06-17 08:34:00,78.2,74.0,30.02,East,86,1.0,11.0,88,0.00,,,0.00,200,weatherlink.com 1.10,2013-06-17 12:34:00,
2013-06-17 08:49:00,78.7,75.0,30.02,East,84,3.0,12.0,87,0.00,,,0.00,309,weatherlink.com 1.10,2013-06-17 12:49:00,
2013-06-17 09:04:00,79.0,75.0,30.02,East,86,2.0,12.0,87,0.00,,,0.00,346,weatherlink.com 1.10,2013-06-17 13:04:00,
2013-06-17 09:19:00,79.6,76.0,30.02,East,90,3.0,11.0,87,0.00,,,0.00,297,weatherlink.com 1.10,2013-06-17 13:19:00,
2013-06-17 09:34:00,80.2,75.0,30.02,SSW,195,2.0,11.0,84,0.00,,,0.00,411,weatherlink.com 1.10,2013-06-17 13:34:00,
2013-06-17 09:49:00,80.3,75.0,30.02,ENE,73,0.0,8.0,84,0.00,,,0.00,288,weatherlink.com 1.10,2013-06-17 13:49:00,
2013-06-17 10:04:00,80.1,75.0,30.02,East,89,3.0,10.0,83,0.00,,,0.00,338,weatherlink.com 1.10,2013-06-17 14:04:00,
2013-06-17 10:19:00,79.8,75.0,30.02,East,85,5.0,8.0,85,0.00,,,0.00,294,weatherlink.com 1.10,2013-06-17 14:19:00,
2013-06-17 10:34:00,79.7,74.0,30.02,East,92,7.0,12.0,83,0.00,,,0.00,329,weatherlink.com 1.10,2013-06-17 14:34:00,
2013-06-17 10:49:00,79.7,74.0,30.02,ESE,105,4.0,11.0,83,0.00,,,0.00,301,weatherlink.com 1.10,2013-06-17 14:49:00,
2013-06-17 11:04:00,79.8,75.0,30.03,East,83,1.0,11.0,85,0.00,,,0.00,323,weatherlink.com 1.10,2013-06-17 15:04:00,
2013-06-17 11:19:00,80.5,75.0,30.03,East,99,0.0,6.0,83,0.00,,,0.00,283,weatherlink.com 1.10,2013-06-17 15:19:00,
2013-06-17 11:34:00,80.5,75.0,30.03,NE,34,1.0,7.0,82,0.00,,,0.00,330,weatherlink.com 1.10,2013-06-17 15:34:00,
2013-06-17 11:49:00,80.8,75.0,30.03,ESE,110,1.0,7.0,82,0.00,,,0.00,425,weatherlink.com 1.10,2013-06-17 15:49:00,
2013-06-17 12:04:00,81.5,76.0,30.03,ENE,62,0.0,10.0,83,0.00,,,0.00,436,weatherlink.com 1.10,2013-06-17 16:04:00,
2013-06-17 12:19:00,81.4,74.0,30.02,ENE,78,0.0,11.0,79,0.00,,,0.00,387,weatherlink.com 1.10,2013-06-17 16:19:00,
2013-06-17 12:34:00,80.8,74.0,30.01,ESE,119,1.0,8.0,80,0.00,,,0.00,178,weatherlink.com 1.10,2013-06-17 16:34:00,
2013-06-17 12:49:00,80.4,74.0,30.01,ESE,105,2.0,7.0,80,0.00,,,0.00,281,weatherlink.com 1.10,2013-06-17 16:49:00,
2013-06-17 13:04:00,80.3,74.0,30.01,ENE,68,4.0,10.0,81,0.00,,,0.00,221,weatherlink.com 1.10,2013-06-17 17:04:00,
2013-06-17 13:19:00,79.9,74.0,30.01,ENE,65,0.0,7.0,82,0.00,,,0.00,257,weatherlink.com 1.10,2013-06-17 17:19:00,
2013-06-17 13:34:00,80.2,74.0,30.01,ENE,70,1.0,8.0,81,0.00,,,0.00,202,weatherlink.com 1.10,2013-06-17 17:34:00,
2013-06-17 13:49:00,81.0,75.0,30.01,East,80,3.0,8.0,81,0.00,,,0.00,297,weatherlink.com 1.10,2013-06-17 17:49:00,
2013-06-17 14:04:00,82.5,74.0,30.00,ENE,68,1.0,10.0,75,0.00,,,0.00,904,weatherlink.com 1.10,2013-06-17 18:04:00,
2013-06-17 14:19:00,81.6,73.0,30.00,East,87,7.0,14.0,75,0.00,,,0.00,492,weatherlink.com 1.10,2013-06-17 18:19:00,
2013-06-17 14:34:00,82.2,74.0,30.00,ENE,63,5.0,11.0,75,0.00,,,0.00,454,weatherlink.com 1.10,2013-06-17 18:34:00,
2013-06-17 14:49:00,83.4,74.0,29.99,East,98,3.0,6.0,72,0.00,,,0.00,907,weatherlink.com 1.10,2013-06-17 18:49:00,
2013-06-17 15:04:00,83.6,73.0,29.99,NE,53,1.0,8.0,70,0.00,,,0.00,856,weatherlink.com 1.10,2013-06-17 19:04:00,
2013-06-17 15:19:00,83.3,73.0,29.98,East,88,3.0,11.0,71,0.00,,,0.00,487,weatherlink.com 1.10,2013-06-17 19:19:00,
2013-06-17 15:34:00,83.5,74.0,29.98,East,92,5.0,10.0,72,0.00,,,0.00,378,weatherlink.com 1.10,2013-06-17 19:34:00,
2013-06-17 15:49:00,83.3,73.0,29.98,ESE,118,0.0,8.0,72,0.00,,,0.00,466,weatherlink.com 1.10,2013-06-17 19:49:00,
2013-06-17 16:04:00,82.4,74.0,29.98,ENE,58,4.0,6.0,75,0.00,,,0.00,169,weatherlink.com 1.10,2013-06-17 20:04:00,
2013-06-17 16:19:00,81.5,74.0,29.98,ESE,104,2.0,7.0,78,0.00,,,0.00,134,weatherlink.com 1.10,2013-06-17 20:19:00,
2013-06-17 16:34:00,80.8,75.0,29.98,ENE,72,4.0,8.0,81,0.00,,,0.00,76,weatherlink.com 1.10,2013-06-17 20:34:00,
2013-06-17 16:49:00,79.9,74.0,29.98,ESE,106,1.0,9.0,81,0.00,,,0.00,98,weatherlink.com 1.10,2013-06-17 20:49:00,
2013-06-17 17:04:00,80.0,74.0,29.98,South,178,0.0,7.0,81,0.00,,,0.00,139,weatherlink.com 1.10,2013-06-17 21:04:00,
2013-06-17 17:19:00,80.3,74.0,29.99,SE,136,3.0,7.0,81,0.00,,,0.00,295,weatherlink.com 1.10,2013-06-17 21:19:00,
2013-06-17 17:34:00,80.5,74.0,29.98,SSE,148,1.0,9.0,80,0.00,,,0.00,253,weatherlink.com 1.10,2013-06-17 21:34:00,
2013-06-17 17:49:00,80.7,73.0,29.98,SE,137,0.0,5.0,78,0.00,,,0.00,179,weatherlink.com 1.10,2013-06-17 21:49:00,
2013-06-17 18:04:00,80.5,73.0,29.99,East,92,1.0,5.0,78,0.00,,,0.00,84,weatherlink.com 1.10,2013-06-17 22:04:00,
2013-06-17 18:19:00,79.9,73.0,30.00,East,84,6.0,6.0,80,0.00,,,0.00,70,weatherlink.com 1.10,2013-06-17 22:19:00,
2013-06-17 18:34:00,79.4,73.0,30.00,ENE,73,0.0,7.0,81,0.00,,,0.00,37,weatherlink.com 1.10,2013-06-17 22:34:00,
2013-06-17 18:49:00,79.0,74.0,30.00,ENE,74,2.0,6.0,83,0.00,,,0.00,18,weatherlink.com 1.10,2013-06-17 22:49:00,
2013-06-17 19:04:00,78.6,73.0,30.01,East,92,0.0,6.0,83,0.00,,,0.00,0,weatherlink.com 1.10,2013-06-17 23:04:00,
2013-06-17 19:19:00,78.4,73.0,30.00,ENE,57,4.0,7.0,84,0.00,,,0.00,0,weatherlink.com 1.10,2013-06-17 23:19:00,
2013-06-17 19:34:00,78.0,73.0,30.01,East,92,3.0,7.0,85,0.00,,,0.00,0,weatherlink.com 1.10,2013-06-17 23:34:00,
2013-06-17 19:49:00,77.9,74.0,30.01,East,101,1.0,5.0,86,0.00,,,0.00,0,weatherlink.com 1.10,2013-06-17 23:49:00,
2013-06-17 20:04:00,77.6,73.0,30.02,ESE,107,2.0,4.0,86,0.00,,,0.00,0,weatherlink.com 1.10,2013-06-18 00:04:00,
2013-06-17 20:19:00,77.3,73.0,30.02,ESE,105,1.0,5.0,86,0.00,,,0.00,0,weatherlink.com 1.10,2013-06-18 00:19:00,
2013-06-17 20:34:00,77.1,73.0,30.02,East,95,0.0,1.0,87,0.00,,,0.00,0,weatherlink.com 1.10,2013-06-18 00:34:00,
2013-06-17 20:49:00,77.0,73.0,30.03,East,95,0.0,2.0,87,0.00,,,0.00,0,weatherlink.com 1.10,2013-06-18 00:49:00,
2013-06-17 21:04:00,77.0,73.0,30.03,East,95,0.0,1.0,88,0.00,,,0.00,0,weatherlink.com 1.10,2013-06-18 01:04:00,
2013-06-17 21:20:00,76.9,73.0,30.03,East,95,0.0,1.0,88,0.00,,,0.00,0,weatherlink.com 1.10,2013-06-18 01:20:00,
2013-06-17 21:35:00,76.7,73.0,30.03,East,95,0.0,1.0,89,0.00,,,0.00,0,weatherlink.com 1.10,2013-06-18 01:35:00,
2013-06-17 21:50:00,76.5,73.0,30.03,East,95,0.0,5.0,89,0.00,,,0.00,0,weatherlink.com 1.10,2013-06-18 01:50:00,
2013-06-17 22:05:00,76.4,73.0,30.02,East,95,1.0,3.0,90,0.00,,,0.00,0,weatherlink.com 1.10,2013-06-18 02:05:00,
2013-06-17 22:20:00,76.2,73.0,30.03,East,95,0.0,2.0,90,0.00,,,0.00,0,weatherlink.com 1.10,2013-06-18 02:20:00,
2013-06-17 22:35:00,76.2,73.0,30.03,East,95,0.0,1.0,90,0.00,,,0.00,0,weatherlink.com 1.10,2013-06-18 02:35:00,
2013-06-17 22:50:00,76.1,73.0,30.03,East,95,0.0,2.0,90,0.00,,,0.00,0,weatherlink.com 1.10,2013-06-18 02:50:00,
2013-06-17 23:05:00,76.0,73.0,30.03,East,93,3.0,5.0,90,0.00,,,0.00,0,weatherlink.com 1.10,2013-06-18 03:05:00,
2013-06-17 23:20:00,76.0,73.0,30.03,East,94,2.0,7.0,90,0.00,,,0.00,0,weatherlink.com 1.10,2013-06-18 03:20:00,
2013-06-17 23:35:00,75.8,73.0,30.02,ESE,113,1.0,4.0,90,0.00,,,0.00,0,weatherlink.com 1.10,2013-06-18 03:35:00,
2013-06-17 23:50:00,75.8,73.0,30.02,East,95,0.0,3.0,90,0.00,,,0.00,0,weatherlink.com 1.10,2013-06-18 03:50:00,